^^
Meteo Knjazevac Station Historical Data
Daily Summary for August 06, 2022 Units:  English    Metric   Both
Daily Weekly Monthly Yearly Custom
  High: Low: Average:
Temperature: 96.7 °F 57.1 °F 77.9 °F
Dew Point: 66.3 °F 54 °F 60.2 °F
Humidity: 90% 33.3% 59%
Wind Speed: 11.9mph 0mph 4.2mph
Wind Gust: 14mph - -
Wind- - SSW
Pressure: 30.00 in 29.91 in -
Precipitation: 0.00 in    
Historical Graphs
 
 
Tabular Data for August 06, 2022
Time Temperature Dew Point Pressure Wind Wind Speed Wind Gust Humidity Rainfall Rate (Hourly) solar Conditions
00:04 66 °F 57.2 °F 29.99 in WSW 0.4 mph 0.4 mph 73.3% 0.00 in 0 W/m2
00:09 65.7 °F 57.2 °F 29.98 in West 1.2 mph 1 mph 74% 0.00 in 0 W/m2
00:14 65.5 °F 57 °F 29.98 in West 1 mph 0.2 mph 74% 0.00 in 0 W/m2
00:19 65.3 °F 56.9 °F 29.99 in NW 2.2 mph 2 mph 74.4% 0.00 in 0 W/m2
00:24 65.1 °F 57 °F 29.99 in NW 2.4 mph 2 mph 75% 0.00 in 0 W/m2
00:29 64.9 °F 56.8 °F 29.98 in WNW 3.3 mph 4 mph 75% 0.00 in 0 W/m2
00:34 64.8 °F 56.6 °F 29.99 in West 2.3 mph 4 mph 75% 0.00 in 0 W/m2
00:39 64.7 °F 56.6 °F 29.98 in WNW 2.3 mph 2 mph 75% 0.00 in 0 W/m2
00:44 64.5 °F 56.5 °F 29.98 in NW 0.5 mph 2 mph 75.3% 0.00 in 0 W/m2
00:49 64.3 °F 56.9 °F 29.99 in NW 0.6 mph 1 mph 77% 0.00 in 0 W/m2
00:54 64.1 °F 56.8 °F 29.99 in NW 1.2 mph 1 mph 77% 0.00 in 0 W/m2
00:59 64 °F 56.8 °F 29.98 in NNW 0.9 mph 2 mph 77.3% 0.00 in 0 W/m2
01:04 63.9 °F 56.8 °F 29.98 in NNW 1.2 mph 1 mph 77.7% 0.00 in 0 W/m2
01:09 63.6 °F 56.6 °F 29.98 in NW 1.1 mph 2 mph 77.8% 0.00 in 0 W/m2
01:14 63.4 °F 56.4 °F 29.99 in NW 0.8 mph 2 mph 78% 0.00 in 0 W/m2
01:19 63.1 °F 56.2 °F 29.99 in NNW 1.4 mph 2 mph 78% 0.00 in 0 W/m2
01:24 62.7 °F 56.1 °F 29.98 in WNW 1.9 mph 2 mph 78.9% 0.00 in 0 W/m2
01:29 62.5 °F 55.9 °F 29.99 in WNW 2.2 mph 2 mph 79% 0.00 in 0 W/m2
01:34 62.4 °F 55.8 °F 29.98 in West 3.4 mph 2.7 mph 79% 0.00 in 0 W/m2
01:39 62.3 °F 55.7 °F 29.98 in West 3.1 mph 4 mph 79% 0.00 in 0 W/m2
01:44 62.2 °F 55.6 °F 29.98 in West 2.6 mph 1.8 mph 79% 0.00 in 0 W/m2
01:49 62.1 °F 55.6 °F 29.99 in West 2.3 mph 1.6 mph 79.3% 0.00 in 0 W/m2
01:54 62.1 °F 55.7 °F 29.99 in WSW 2.2 mph 2 mph 79.8% 0.00 in 0 W/m2
01:59 61.9 °F 55.6 °F 29.99 in West 1.7 mph 2 mph 80% 0.00 in 0 W/m2
02:04 61.7 °F 55.5 °F 29.99 in WNW 1.4 mph 2 mph 80% 0.00 in 0 W/m2
02:09 61.4 °F 55.4 °F 29.99 in West 2.1 mph 1.6 mph 80.6% 0.00 in 0 W/m2
02:14 61.2 °F 55.4 °F 29.99 in WNW 1.8 mph 2 mph 81% 0.00 in 0 W/m2
02:19 61.2 °F 55.3 °F 29.99 in WNW 2.3 mph 2 mph 81% 0.00 in 0 W/m2
02:24 61 °F 55.6 °F 29.99 in West 2.5 mph 1.8 mph 82.4% 0.00 in 0 W/m2
02:29 60.9 °F 55.7 °F 29.99 in West 1.8 mph 3 mph 83% 0.00 in 0 W/m2
02:34 60.8 °F 55.6 °F 29.99 in West 1.8 mph 2.5 mph 83% 0.00 in 0 W/m2
02:39 60.6 °F 55.4 °F 29.99 in WNW 2.9 mph 3 mph 83% 0.00 in 0 W/m2
02:44 60.6 °F 55.4 °F 29.99 in WNW 2.7 mph 2.5 mph 83% 0.00 in 0 W/m2
02:49 60.6 °F 55.4 °F 29.99 in WNW 2.1 mph 3 mph 83% 0.00 in 0 W/m2
02:54 60.5 °F 55.3 °F 29.99 in WNW 2.2 mph 2 mph 83% 0.00 in 0 W/m2
02:59 60.3 °F 55.3 °F 29.99 in West 2.7 mph 2.2 mph 83.4% 0.00 in 0 W/m2
03:04 60.2 °F 55.3 °F 29.99 in West 2.3 mph 2 mph 84% 0.00 in 0 W/m2
03:09 60.1 °F 55.2 °F 29.99 in West 2.3 mph 2 mph 84% 0.00 in 0 W/m2
03:13 60 °F 55.2 °F 29.99 in West 2.2 mph 2 mph 84% 0.00 in 0 W/m2
03:19 59.8 °F 55 °F 29.99 in West 2.8 mph 2.2 mph 84% 0.00 in 0 W/m2
03:24 59.7 °F 54.9 °F 29.99 in West 2.8 mph 3 mph 84% 0.00 in 0 W/m2
03:29 59.5 °F 54.7 °F 29.99 in WSW 2.3 mph 3 mph 84% 0.00 in 0 W/m2
03:34 59.4 °F 54.8 °F 29.99 in WSW 2.3 mph 2 mph 84.8% 0.00 in 0 W/m2
03:39 59.2 °F 54.7 °F 29.99 in WSW 3.5 mph 3 mph 85% 0.00 in 0 W/m2
03:44 59.1 °F 54.6 °F 29.99 in West 3.6 mph 4 mph 85% 0.00 in 0 W/m2
03:49 59.2 °F 54.8 °F 29.98 in West 4.5 mph 3.1 mph 85.3% 0.00 in 0 W/m2
03:54 59.3 °F 55 °F 29.98 in West 4.3 mph 5 mph 85.5% 0.00 in 0 W/m2
03:59 59.4 °F 54.8 °F 29.98 in West 3.5 mph 5 mph 85% 0.00 in 0 W/m2
04:04 59.4 °F 54.8 °F 29.98 in WSW 2.9 mph 3 mph 85% 0.00 in 0 W/m2
04:09 59.3 °F 54.7 °F 29.98 in West 2.6 mph 3 mph 85% 0.00 in 0 W/m2
04:14 59.2 °F 54.8 °F 29.98 in West 3.4 mph 3 mph 85.5% 0.00 in 0 W/m2
04:19 59.2 °F 55 °F 29.98 in WNW 3.3 mph 2.7 mph 86% 0.00 in 0 W/m2
04:24 59.2 °F 54.8 °F 29.98 in West 2.6 mph 3 mph 85.4% 0.00 in 0 W/m2
04:29 59 °F 54.7 °F 29.98 in West 2.3 mph 3 mph 85.5% 0.00 in 0 W/m2
04:34 59 °F 54.8 °F 29.98 in West 2.3 mph 2 mph 86% 0.00 in 0 W/m2
04:39 58.8 °F 54.6 °F 29.98 in West 2.1 mph 1.6 mph 86% 0.00 in 0 W/m2
04:44 58.6 °F 54.5 °F 29.98 in West 2.3 mph 2 mph 86% 0.00 in 0 W/m2
04:49 58.5 °F 54.3 °F 29.98 in West 2.5 mph 2 mph 86% 0.00 in 0 W/m2
04:54 58.3 °F 54.2 °F 29.98 in West 3.7 mph 4 mph 86% 0.00 in 0 W/m2
04:59 58.3 °F 54.4 °F 29.98 in West 3.3 mph 5 mph 87.1% 0.00 in 0 W/m2
05:04 58.2 °F 54.6 °F 29.98 in WSW 2.3 mph 5 mph 88% 0.00 in 0 W/m2
05:09 58.1 °F 54.6 °F 29.99 in WSW 2.4 mph 2 mph 88% 0.00 in 0 W/m2
05:14 57.9 °F 54.4 °F 29.99 in WSW 3.2 mph 3 mph 88% 0.00 in 1 W/m2
05:19 57.9 °F 54.4 °F 29.99 in West 2.9 mph 3 mph 88% 0.00 in 2 W/m2
05:24 57.7 °F 54.4 °F 29.99 in West 2.1 mph 3 mph 88.5% 0.00 in 3 W/m2
05:29 57.8 °F 54.6 °F 29.99 in WNW 1.2 mph 2 mph 89% 0.00 in 6 W/m2
05:34 57.7 °F 54.5 °F 29.99 in NW 1 mph 2 mph 89% 0.00 in 8 W/m2
05:39 57.7 °F 54.5 °F 29.99 in NW 1.4 mph 1.1 mph 89% 0.00 in 11 W/m2
05:44 57.6 °F 54.3 °F 29.99 in West 1.8 mph 2 mph 89% 0.00 in 15 W/m2
05:49 57.5 °F 54.2 °F 29.99 in WNW 1.3 mph 2 mph 89% 0.00 in 19 W/m2
05:54 57.4 °F 54.2 °F 29.99 in NW 1.8 mph 2 mph 89% 0.00 in 24 W/m2
05:59 57.4 °F 54.2 °F 29.99 in NW 1.6 mph 2 mph 89% 0.00 in 29 W/m2
06:04 57.2 °F 54 °F 29.99 in WNW 2.3 mph 2 mph 89% 0.00 in 37 W/m2
06:09 57.1 °F 54.1 °F 29.99 in West 2.8 mph 2 mph 89.7% 0.00 in 49 W/m2
06:14 57.1 °F 54.2 °F 29.99 in West 2.6 mph 3 mph 90% 0.00 in 58 W/m2
06:19 57.2 °F 54.3 °F 29.99 in West 3.4 mph 4 mph 90% 0.00 in 68 W/m2
06:24 57.4 °F 54.5 °F 29.99 in West 3.6 mph 4 mph 90% 0.00 in 78 W/m2
06:29 57.6 °F 54.6 °F 30.00 in West 3.5 mph 4 mph 90% 0.00 in 88 W/m2
06:34 57.8 °F 54.9 °F 30.00 in West 3.5 mph 3 mph 90% 0.00 in 100 W/m2
06:39 58.2 °F 55.3 °F 30.00 in WNW 2.7 mph 4 mph 90% 0.00 in 113 W/m2
06:44 58.5 °F 55.4 °F 30.00 in NW 2.2 mph 0.9 mph 89.3% 0.00 in 124 W/m2
06:49 58.7 °F 55.5 °F 30.00 in NW 0.1 mph 2 mph 89% 0.00 in 139 W/m2
06:54 58.8 °F 55.7 °F 30.00 in Calm     89.2% 0.00 in 151 W/m2
06:59 59 °F 55.8 °F 30.00 in Calm     89% 0.00 in 166 W/m2
07:04 59.2 °F 55.9 °F 30.00 in Calm     89% 0.00 in 180 W/m2
07:09 59.4 °F 56.1 °F 30.00 in North 0.8 mph 0.4 mph 89% 0.00 in 195 W/m2
07:14 59.6 °F 56.4 °F 30.00 in NNW 1.2 mph 1 mph 88.9% 0.00 in 210 W/m2
07:19 60.1 °F 56.6 °F 30.00 in WNW 1.5 mph 1.1 mph 88.4% 0.00 in 226 W/m2
07:24 60.4 °F 56.8 °F 30.00 in WNW 2.3 mph 2 mph 88% 0.00 in 241 W/m2
07:29 60.7 °F 57.1 °F 30.00 in WNW 3.9 mph 2.2 mph 88% 0.00 in 255 W/m2
07:34 61.3 °F 57.7 °F 30.00 in NW 2.7 mph 5 mph 88% 0.00 in 273 W/m2
07:39 61.7 °F 57.6 °F 30.00 in NW 1.9 mph 3 mph 86.4% 0.00 in 288 W/m2
07:44 62.4 °F 57.9 °F 30.00 in WNW 1.3 mph 2 mph 85.3% 0.00 in 306 W/m2
07:49 63.2 °F 58.3 °F 30.00 in WSW 2.1 mph 2 mph 84% 0.00 in 323 W/m2
07:54 63.7 °F 58.8 °F 30.00 in WSW 1.7 mph 2 mph 84.2% 0.00 in 342 W/m2
07:59 64.2 °F 59 °F 30.00 in West 1.9 mph 2 mph 83.3% 0.00 in 361 W/m2
08:04 64.7 °F 59.3 °F 30.00 in West 2.3 mph 2 mph 82.5% 0.00 in 379 W/m2
08:09 65.3 °F 59.2 °F 30.00 in WSW 2.3 mph 2 mph 80.8% 0.00 in 397 W/m2
08:14 66.1 °F 59.6 °F 30.00 in SW 2 mph 2 mph 79.5% 0.00 in 414 W/m2
08:19 66.8 °F 60.1 °F 30.00 in SW 2.1 mph 2 mph 79.3% 0.00 in 430 W/m2
08:24 67.4 °F 60.3 °F 30.00 in SW 2 mph 2 mph 78.2% 0.00 in 448 W/m2
08:29 68 °F 60.7 °F 30.00 in SW 1.3 mph 2 mph 77.4% 0.00 in 463 W/m2
08:34 69.5 °F 61.3 °F 30.00 in SW 1.2 mph 0.7 mph 75.2% 0.00 in 477 W/m2
08:39 70.9 °F 61.7 °F 30.00 in WSW 1.1 mph 1 mph 72.8% 0.00 in 494 W/m2
08:44 72.3 °F 61.5 °F 30.00 in West 1.2 mph 1 mph 69% 0.00 in 510 W/m2
08:49 73.6 °F 62 °F 30.00 in WSW 2 mph 1.3 mph 67.1% 0.00 in 527 W/m2
08:54 74.9 °F 63.3 °F 29.99 in SW 1.9 mph 2 mph 67.3% 0.00 in 542 W/m2
08:59 75.8 °F 63.3 °F 29.99 in South 3.2 mph 3 mph 65.3% 0.00 in 560 W/m2
09:04 76.3 °F 63.5 °F 29.99 in South 2.3 mph 3 mph 64.6% 0.00 in 574 W/m2
09:09 76.9 °F 63.8 °F 29.99 in SSE 3.7 mph 2.9 mph 64.1% 0.00 in 590 W/m2
09:14 77.6 °F 64.2 °F 29.99 in East 3.2 mph 4 mph 63.4% 0.00 in 606 W/m2
09:19 78.1 °F 64.6 °F 29.99 in SE 2.8 mph 4 mph 63.3% 0.00 in 621 W/m2
09:24 78.7 °F 64.9 °F 29.99 in South 3.9 mph 4 mph 62.6% 0.00 in 636 W/m2
09:29 79.4 °F 64.8 °F 29.99 in ENE 2.7 mph 5 mph 61.1% 0.00 in 651 W/m2
09:34 79.9 °F 65.1 °F 29.99 in NE 3.4 mph 5 mph 60.7% 0.00 in 662 W/m2
09:39 80.5 °F 64.9 °F 29.99 in NNE 2.6 mph 4 mph 59.2% 0.00 in 680 W/m2
09:44 80.8 °F 64.5 °F 29.99 in ENE 3.4 mph 3 mph 57.9% 0.00 in 694 W/m2
09:49 81.1 °F 63.9 °F 29.99 in ENE 4.1 mph 5 mph 56% 0.00 in 709 W/m2
09:54 81.5 °F 63.5 °F 29.98 in NE 6.3 mph 6 mph 54.4% 0.00 in 723 W/m2
09:59 81.9 °F 64.1 °F 29.98 in NE 6 mph 8 mph 54.7% 0.00 in 736 W/m2
10:04 82.7 °F 64.3 °F 29.98 in NE 5.7 mph 7 mph 53.9% 0.00 in 747 W/m2
10:09 83.5 °F 64 °F 29.98 in NE 6 mph 7 mph 52.1% 0.00 in 757 W/m2
10:14 83.4 °F 63.8 °F 29.98 in ENE 7.7 mph 7 mph 51.8% 0.00 in 769 W/m2
10:19 83.9 °F 65.2 °F 29.98 in NE 5.8 mph 10 mph 53.4% 0.00 in 781 W/m2
10:24 84.6 °F 64.7 °F 29.98 in NE 5.9 mph 7 mph 51.5% 0.00 in 792 W/m2
10:29 85.3 °F 65 °F 29.98 in NE 5.7 mph 7 mph 50.8% 0.00 in 800 W/m2
10:34 85.9 °F 64.5 °F 29.98 in NNE 8.1 mph 4.7 mph 48.9% 0.00 in 812 W/m2
10:39 86.5 °F 64.5 °F 29.98 in North 5.7 mph 9 mph 48% 0.00 in 818 W/m2
10:44 87 °F 65.1 °F 29.98 in NNE 6.5 mph 7 mph 48.2% 0.00 in 833 W/m2
10:49 87.5 °F 65.4 °F 29.98 in NNE 5.7 mph 7 mph 48% 0.00 in 829 W/m2
10:54 87.9 °F 66 °F 29.97 in NE 5.2 mph 7 mph 48.4% 0.00 in 694 W/m2
10:59 88.3 °F 66.3 °F 29.97 in NE 6.9 mph 4.5 mph 48.2% 0.00 in 865 W/m2
11:04 88.7 °F 65 °F 29.97 in NNE 7.4 mph 9 mph 45.7% 0.00 in 871 W/m2
11:09 89 °F 64.6 °F 29.97 in NNE 8.6 mph 8 mph 44.5% 0.00 in 872 W/m2
11:14 89.6 °F 65.7 °F 29.97 in NNE 6.5 mph 9 mph 45.4% 0.00 in 812 W/m2
11:19 90.3 °F 65.9 °F 29.97 in NNE 6.6 mph 8 mph 44.8% 0.00 in 892 W/m2
11:24 90.7 °F 65.5 °F 29.97 in North 7.8 mph 7 mph 43.6% 0.00 in 789 W/m2
11:29 90.9 °F 65.6 °F 29.97 in NNE 7.1 mph 9 mph 43.5% 0.00 in 895 W/m2
11:34 91.4 °F 65.9 °F 29.97 in NNE 7 mph 4.5 mph 43.2% 0.00 in 834 W/m2
11:39 91.8 °F 66.2 °F 29.97 in NNE 7.8 mph 7 mph 43.1% 0.00 in 619 W/m2
11:44 91.8 °F 66 °F 29.97 in NNE 10.3 mph 11 mph 42.8% 0.00 in 487 W/m2
11:49 92.2 °F 65.7 °F 29.97 in North 7.5 mph 12 mph 41.9% 0.00 in 939 W/m2
11:54 92.4 °F 66 °F 29.96 in North 9.5 mph 8 mph 42% 0.00 in 954 W/m2
11:59 92.6 °F 65 °F 29.96 in North 8 mph 12 mph 40.4% 0.00 in 956 W/m2
12:04 92.7 °F 65.4 °F 29.96 in North 7.6 mph 8 mph 40.8% 0.00 in 959 W/m2
12:09 92.9 °F 64.7 °F 29.96 in North 10.4 mph 9 mph 39.6% 0.00 in 966 W/m2
12:14 93 °F 64.1 °F 29.96 in North 8.2 mph 12 mph 38.5% 0.00 in 981 W/m2
12:19 93.1 °F 64.5 °F 29.96 in North 7.8 mph 10 mph 39% 0.00 in 992 W/m2
12:24 93.3 °F 64.3 °F 29.96 in NNE 6.1 mph 8 mph 38.5% 0.00 in 997 W/m2
12:29 93.8 °F 64.7 °F 29.96 in NNE 7 mph 6 mph 38.5% 0.00 in 1012 W/m2
12:34 94 °F 64.5 °F 29.95 in North 5.2 mph 8 mph 38% 0.00 in 692 W/m2
12:39 93.2 °F 64 °F 29.96 in North 7.1 mph 4 mph 38.2% 0.00 in 507 W/m2
12:44 92.5 °F 63.8 °F 29.95 in NNE 6.7 mph 9 mph 38.8% 0.00 in 374 W/m2
12:49 92 °F 63.8 °F 29.95 in NE 8.3 mph 9 mph 39.5% 0.00 in 577 W/m2
12:54 91.9 °F 63.9 °F 29.95 in NNE 8.2 mph 10 mph 39.7% 0.00 in 1030 W/m2
12:59 92.3 °F 65.5 °F 29.95 in NNE 9.7 mph 6 mph 41.4% 0.00 in 1008 W/m2
13:04 93.1 °F 64.3 °F 29.95 in NNE 8.6 mph 11 mph 38.7% 0.00 in 973 W/m2
13:09 93.7 °F 64.7 °F 29.95 in NNE 5.6 mph 11 mph 38.6% 0.00 in 982 W/m2
13:14 94 °F 64.2 °F 29.95 in NNE 9.2 mph 8 mph 37.6% 0.00 in 982 W/m2
13:19 94.1 °F 64.9 °F 29.95 in NNE 9.6 mph 5.8 mph 38.4% 0.00 in 989 W/m2
13:24 94.4 °F 64.5 °F 29.95 in NE 9.6 mph 12 mph 37.6% 0.00 in 995 W/m2
13:29 94.7 °F 64.3 °F 29.95 in NE 9.7 mph 12 mph 36.9% 0.00 in 994 W/m2
13:34 94.9 °F 63.7 °F 29.95 in NNE 7 mph 9 mph 36% 0.00 in 1009 W/m2
13:39 95.2 °F 63.9 °F 29.95 in North 11.9 mph 11 mph 35.8% 0.00 in 1001 W/m2
13:44 95.2 °F 64.7 °F 29.95 in North 10.1 mph 13 mph 36.9% 0.00 in 986 W/m2
13:49 95.5 °F 65.5 °F 29.94 in North 9.8 mph 12 mph 37.5% 0.00 in 980 W/m2
13:54 95.8 °F 65.4 °F 29.94 in North 7.8 mph 12 mph 37% 0.00 in 953 W/m2
13:59 95.9 °F 63.1 °F 29.94 in NNE 8.6 mph 11 mph 34.1% 0.00 in 968 W/m2
14:04 94.8 °F 63 °F 29.94 in NE 7.4 mph 10 mph 35.1% 0.00 in 959 W/m2
14:09 94.6 °F 62.9 °F 29.94 in ENE 6.7 mph 10 mph 35.2% 0.00 in 738 W/m2
14:14 94.5 °F 63.1 °F 29.94 in NE 7.1 mph 9 mph 35.6% 0.00 in 480 W/m2
14:19 94.1 °F 63.4 °F 29.94 in NNE 4.6 mph 8 mph 36.4% 0.00 in 990 W/m2
14:24 94.3 °F 63.6 °F 29.94 in NNE 5.7 mph 4.9 mph 36.5% 0.00 in 933 W/m2
14:29 94 °F 64 °F 29.94 in NNE 7.9 mph 9 mph 37.4% 0.00 in 349 W/m2
14:34 93.4 °F 64 °F 29.94 in NE 6.9 mph 10 mph 38% 0.00 in 541 W/m2
14:39 93.3 °F 64.1 °F 29.94 in NNE 7.5 mph 7 mph 38.3% 0.00 in 826 W/m2
14:44 93.8 °F 64.9 °F 29.94 in NNW 4.4 mph 3.6 mph 38.7% 0.00 in 913 W/m2
14:49 94.5 °F 65.2 °F 29.93 in NNW 5.5 mph 6 mph 38.2% 0.00 in 858 W/m2
14:54 95 °F 65.4 °F 29.93 in NNW 7.1 mph 8 mph 38% 0.00 in 858 W/m2
14:59 95.7 °F 65.1 °F 29.93 in North 9.8 mph 8 mph 36.8% 0.00 in 848 W/m2
15:04 95.8 °F 63.8 °F 29.93 in North 11.7 mph 13 mph 35% 0.00 in 818 W/m2
15:09 95.6 °F 64.4 °F 29.93 in North 8.2 mph 13 mph 36% 0.00 in 802 W/m2
15:14 95.8 °F 63.8 °F 29.93 in North 8.1 mph 9 mph 35.1% 0.00 in 809 W/m2
15:19 96 °F 64.6 °F 29.93 in North 8.2 mph 12 mph 35.9% 0.00 in 800 W/m2
15:24 96.3 °F 64.3 °F 29.93 in North 7.9 mph 9 mph 35.2% 0.00 in 786 W/m2
15:29 96.3 °F 64.4 °F 29.93 in North 9.6 mph 9 mph 35.3% 0.00 in 766 W/m2
15:34 96.4 °F 64.5 °F 29.93 in North 9.6 mph 6.9 mph 35.2% 0.00 in 744 W/m2
15:39 96.7 °F 64.4 °F 29.93 in NNE 9.5 mph 11 mph 34.9% 0.00 in 716 W/m2
15:44 96.6 °F 63.3 °F 29.92 in NNE 9.2 mph 14 mph 33.6% 0.00 in 679 W/m2
15:49 96.2 °F 63.4 °F 29.92 in NE 8.9 mph 12 mph 34.1% 0.00 in 657 W/m2
15:54 96.1 °F 63.6 °F 29.92 in NNE 9.2 mph 13 mph 34.6% 0.00 in 637 W/m2
15:58 96.2 °F 63.9 °F 29.92 in NNE 5 mph 12 mph 34.7% 0.00 in 622 W/m2
16:04 96.6 °F 63.2 °F 29.92 in NNE 5.3 mph 5 mph 33.6% 0.00 in 614 W/m2
16:09 96.2 °F 62.6 °F 29.92 in NNE 7.9 mph 4.5 mph 33.3% 0.00 in 613 W/m2
16:14 95.8 °F 62.9 °F 29.92 in ENE 5.2 mph 3.8 mph 34% 0.00 in 598 W/m2
16:19 96 °F 63.3 °F 29.92 in NE 6.2 mph 7 mph 34.2% 0.00 in 581 W/m2
16:24 96.3 °F 63.5 °F 29.92 in North 5.9 mph 4.2 mph 34.2% 0.00 in 561 W/m2
16:29 96.5 °F 63.6 °F 29.92 in North 4.2 mph 7 mph 34% 0.00 in 546 W/m2
16:34 96.5 °F 63.6 °F 29.92 in North 8.4 mph 5.1 mph 34.1% 0.00 in 525 W/m2
16:39 96.3 °F 64.1 °F 29.92 in North 7 mph 10 mph 34.9% 0.00 in 502 W/m2
16:44 96.3 °F 63.5 °F 29.91 in North 5.9 mph 8 mph 34.2% 0.00 in 485 W/m2
16:49 96.3 °F 63.7 °F 29.91 in NNW 4.2 mph 2.2 mph 34.5% 0.00 in 476 W/m2
16:54 96 °F 63.6 °F 29.91 in North 5 mph 5 mph 34.7% 0.00 in 467 W/m2
16:59 95.9 °F 64.7 °F 29.91 in NE 6.6 mph 4.7 mph 36.1% 0.00 in 449 W/m2
17:04 95.9 °F 63.8 °F 29.91 in NNE 7.5 mph 5.1 mph 35% 0.00 in 423 W/m2
17:09 95.7 °F 63.7 °F 29.91 in North 6.3 mph 9 mph 35% 0.00 in 402 W/m2
17:14 95.5 °F 63.2 °F 29.91 in North 7.7 mph 8 mph 34.6% 0.00 in 387 W/m2
17:19 95.3 °F 62.6 °F 29.91 in North 7.5 mph 8 mph 34.2% 0.00 in 378 W/m2
17:24 95 °F 63.3 °F 29.91 in North 8 mph 8 mph 35.3% 0.00 in 376 W/m2
17:29 95.1 °F 63.6 °F 29.91 in North 5.1 mph 8 mph 35.6% 0.00 in 380 W/m2
17:34 95.3 °F 62.6 °F 29.91 in North 5.3 mph 7 mph 34.1% 0.00 in 367 W/m2
17:39 95.5 °F 62.4 °F 29.91 in NNW 5.5 mph 6 mph 33.6% 0.00 in 354 W/m2
17:44 95.5 °F 62.4 °F 29.91 in NNW 6.3 mph 6 mph 33.7% 0.00 in 328 W/m2
17:49 95.4 °F 62.9 °F 29.91 in North 6.5 mph 7 mph 34.5% 0.00 in 298 W/m2
17:54 95.4 °F 62.7 °F 29.91 in North 5.8 mph 7 mph 34.3% 0.00 in 279 W/m2
17:59 95.4 °F 63.3 °F 29.91 in North 6.5 mph 7 mph 35% 0.00 in 255 W/m2
18:04 95.2 °F 62.7 °F 29.91 in North 5.7 mph 8 mph 34.4% 0.00 in 237 W/m2
18:09 95.2 °F 62.4 °F 29.91 in North 6.2 mph 6 mph 34% 0.00 in 217 W/m2
18:14 95.1 °F 62.3 °F 29.91 in North 7.6 mph 8 mph 34% 0.00 in 200 W/m2
18:19 94.7 °F 62 °F 29.91 in North 5.4 mph 10 mph 34% 0.00 in 186 W/m2
18:24 94.5 °F 61.8 °F 29.91 in North 4.4 mph 6 mph 34% 0.00 in 166 W/m2
18:29 94.3 °F 61.6 °F 29.91 in North 5.7 mph 6 mph 34% 0.00 in 157 W/m2
18:34 94 °F 61.4 °F 29.91 in North 5 mph 7 mph 34% 0.00 in 146 W/m2
18:39 93.7 °F 61.1 °F 29.91 in North 6.9 mph 6 mph 34% 0.00 in 134 W/m2
18:44 93.4 °F 60.8 °F 29.91 in North 6.7 mph 8 mph 34% 0.00 in 121 W/m2
18:49 93.1 °F 61.1 °F 29.91 in North 5.2 mph 8 mph 34.7% 0.00 in 106 W/m2
18:54 92.9 °F 61.3 °F 29.91 in North 4.7 mph 6 mph 35% 0.00 in 93 W/m2
18:59 92.6 °F 61.8 °F 29.91 in North 4.6 mph 6 mph 36.1% 0.00 in 81 W/m2
19:04 92.2 °F 62.1 °F 29.91 in North 3.8 mph 2.9 mph 36.9% 0.00 in 68 W/m2
19:09 91.9 °F 61.6 °F 29.91 in North 4.2 mph 4 mph 36.7% 0.00 in 55 W/m2
19:14 91.3 °F 61.3 °F 29.91 in North 4.6 mph 6 mph 36.8% 0.00 in 44 W/m2
19:19 90.8 °F 60.9 °F 29.91 in NNW 4.7 mph 7 mph 37% 0.00 in 34 W/m2
19:24 90.3 °F 60.8 °F 29.91 in NNW 3.2 mph 6 mph 37.3% 0.00 in 28 W/m2
19:29 89.9 °F 60.8 °F 29.91 in NW 3.1 mph 3 mph 38% 0.00 in 22 W/m2
19:34 89.1 °F 60.7 °F 29.91 in NW 3.1 mph 3 mph 38.6% 0.00 in 16 W/m2
19:39 88.6 °F 60.2 °F 29.91 in NW 3.9 mph 4 mph 38.7% 0.00 in 12 W/m2
19:44 88 °F 60.1 °F 29.91 in NW 3.5 mph 5 mph 39.3% 0.00 in 9 W/m2
19:49 87.4 °F 59.4 °F 29.91 in NNW 4 mph 4 mph 39% 0.00 in 6 W/m2
19:54 87 °F 59.7 °F 29.91 in NNW 3.6 mph 5 mph 39.9% 0.00 in 4 W/m2
19:59 86.4 °F 60.4 °F 29.91 in North 2 mph 4 mph 41.8% 0.00 in 2 W/m2
20:04 86.1 °F 60.4 °F 29.91 in NNW 1.9 mph 2 mph 42.2% 0.00 in 1 W/m2
20:09 85.6 °F 60.6 °F 29.91 in West 1.9 mph 2 mph 43.1% 0.00 in 0 W/m2
20:14 85.1 °F 60.7 °F 29.91 in SW 2.1 mph 2 mph 44% 0.00 in 0 W/m2
20:19 84.5 °F 60.7 °F 29.91 in WSW 3.1 mph 2.9 mph 44.8% 0.00 in 0 W/m2
20:24 83.8 °F 60.2 °F 29.91 in WSW 2.8 mph 4 mph 45% 0.00 in 0 W/m2
20:29 83.2 °F 61 °F 29.91 in WSW 2.4 mph 3 mph 47.3% 0.00 in 0 W/m2
20:34 82.7 °F 61 °F 29.91 in WSW 3.4 mph 2.5 mph 48% 0.00 in 0 W/m2
20:39 82.2 °F 60.5 °F 29.92 in WSW 2.3 mph 3 mph 48% 0.00 in 0 W/m2
20:44 81.7 °F 60.2 °F 29.92 in WSW 2.4 mph 2 mph 48.2% 0.00 in 0 W/m2
20:49 81 °F 60.2 °F 29.92 in SW 2.7 mph 3 mph 49.2% 0.00 in 0 W/m2
20:54 80.4 °F 60 °F 29.92 in SSW 3.5 mph 3.1 mph 50% 0.00 in 0 W/m2
20:59 79.7 °F 60.4 °F 29.92 in SSW 3.3 mph 4 mph 51.8% 0.00 in 0 W/m2
21:04 79.3 °F 60.2 °F 29.92 in SSW 2.6 mph 4 mph 52.1% 0.00 in 0 W/m2
21:09 78.8 °F 60.2 °F 29.92 in SSW 2.4 mph 3 mph 53% 0.00 in 0 W/m2
21:14 78.3 °F 59.8 °F 29.93 in South 3.2 mph 3 mph 53.1% 0.00 in 0 W/m2
21:19 77.6 °F 59.6 °F 29.93 in SSE 3.2 mph 2.5 mph 54% 0.00 in 0 W/m2
21:24 77.3 °F 59.3 °F 29.93 in SSE 2.2 mph 4 mph 54% 0.00 in 0 W/m2
21:29 77 °F 59.1 °F 29.93 in ESE 1.2 mph 2 mph 54% 0.00 in 0 W/m2
21:34 76.8 °F 59.2 °F 29.93 in NNW 2 mph 0.9 mph 54.6% 0.00 in 0 W/m2
21:39 76.7 °F 59.3 °F 29.94 in North 0.8 mph 0.4 mph 55% 0.00 in 0 W/m2
21:44 76.4 °F 59.3 °F 29.94 in NNE 0.6 mph 2 mph 55.4% 0.00 in 0 W/m2
21:49 76.1 °F 59.5 °F 29.94 in North 1 mph 1 mph 56.4% 0.00 in 0 W/m2
21:54 75.8 °F 59.5 °F 29.94 in NNW 2 mph 1.3 mph 57.1% 0.00 in 0 W/m2
21:59 75.5 °F 59.7 °F 29.94 in WNW 0.8 mph 2 mph 58% 0.00 in 0 W/m2
22:04 75.2 °F 59.5 °F 29.94 in WNW 0.9 mph 1.1 mph 58.3% 0.00 in 0 W/m2
22:09 74.9 °F 59.6 °F 29.94 in WNW 2.2 mph 2.2 mph 59.1% 0.00 in 0 W/m2
22:14 74.3 °F 59.5 °F 29.94 in West 0.6 mph 3 mph 60% 0.00 in 0 W/m2
22:19 73.9 °F 60.1 °F 29.94 in West 0.4 mph 1 mph 61.9% 0.00 in 0 W/m2
22:24 73.7 °F 59.8 °F 29.94 in South 0.5 mph 1 mph 62% 0.00 in 0 W/m2
22:29 73.3 °F 59.2 °F 29.94 in SSW 2.5 mph 1.8 mph 61.4% 0.00 in 0 W/m2
22:34 73.1 °F 59.3 °F 29.94 in SW 2.7 mph 1.8 mph 62% 0.00 in 0 W/m2
22:39 73 °F 59.2 °F 29.94 in South 2.3 mph 3 mph 62% 0.00 in 0 W/m2
22:44 72.9 °F 59.3 °F 29.94 in South 2.8 mph 2.7 mph 62.4% 0.00 in 0 W/m2
22:49 72.9 °F 59.1 °F 29.94 in South 3.1 mph 4 mph 62% 0.00 in 0 W/m2
22:54 72.7 °F 58.9 °F 29.94 in SSW 2 mph 3 mph 62% 0.00 in 0 W/m2
22:59 72.7 °F 58.9 °F 29.94 in SSW 3.6 mph 2.7 mph 62% 0.00 in 0 W/m2
23:04 72.5 °F 58.7 °F 29.94 in South 3.2 mph 4 mph 62% 0.00 in 0 W/m2
23:09 72.5 °F 58.7 °F 29.94 in South 3.1 mph 4 mph 62% 0.00 in 0 W/m2
23:14 72.5 °F 58.7 °F 29.94 in SSE 2 mph 4 mph 62% 0.00 in 0 W/m2
23:19 72.6 °F 58.8 °F 29.95 in NE 2 mph 2 mph 62% 0.00 in 0 W/m2
23:24 72.7 °F 58.9 °F 29.95 in NNE 1.6 mph 2.2 mph 62% 0.00 in 0 W/m2
23:29 72.9 °F 59.8 °F 29.95 in NE 7 mph 4 mph 63.5% 0.00 in 0 W/m2
23:34 73.4 °F 60.7 °F 29.95 in ESE 5.8 mph 7 mph 64.4% 0.00 in 0 W/m2
23:39 73.5 °F 60.5 °F 29.95 in SE 3.3 mph 6 mph 64% 0.00 in 0 W/m2
23:44 73.2 °F 60 °F 29.95 in SW 3.5 mph 4 mph 63.5% 0.00 in 0 W/m2
23:49 72.8 °F 59.9 °F 29.95 in West 3.7 mph 4 mph 64% 0.00 in 0 W/m2
23:54 72.7 °F 59.5 °F 29.94 in West 3.9 mph 4 mph 63.3% 0.00 in 0 W/m2
23:59 72.7 °F 59.6 °F 29.94 in West 4.8 mph 5 mph 63.5% 0.00 in 0 W/m2
Knjazevac, Serbia
Compliments of Weather Underground - 4 mb